sensor_id;sensor_type;location;lat;lon;timestamp;P1;P2;P0
44881;PMS5003;30612;38.304;23.786;2024-03-29T00:01:24;0.00;0.00;0.00
44881;PMS5003;30612;38.304;23.786;2024-03-29T00:03:50;0.20;0.20;0.00
44881;PMS5003;30612;38.304;23.786;2024-03-29T00:06:18;0.80;0.80;0.00
44881;PMS5003;30612;38.304;23.786;2024-03-29T00:08:45;0.00;0.00;0.00
44881;PMS5003;30612;38.304;23.786;2024-03-29T00:11:11;0.00;0.00;0.00
44881;PMS5003;30612;38.304;23.786;2024-03-29T00:13:38;1.40;1.00;0.00
44881;PMS5003;30612;38.304;23.786;2024-03-29T00:16:04;0.00;0.00;0.00
44881;PMS5003;30612;38.304;23.786;2024-03-29T00:18:30;1.60;1.60;0.40
44881;PMS5003;30612;38.304;23.786;2024-03-29T00:20:56;1.80;1.80;0.60
44881;PMS5003;30612;38.304;23.786;2024-03-29T00:23:22;0.00;0.00;0.00
44881;PMS5003;30612;38.304;23.786;2024-03-29T00:25:48;0.00;0.00;0.00
44881;PMS5003;30612;38.304;23.786;2024-03-29T00:28:14;0.40;0.40;0.00
44881;PMS5003;30612;38.304;23.786;2024-03-29T00:30:40;0.00;0.00;0.00
44881;PMS5003;30612;38.304;23.786;2024-03-29T00:33:06;2.80;1.00;0.00
44881;PMS5003;30612;38.304;23.786;2024-03-29T00:35:32;0.00;0.00;0.00
44881;PMS5003;30612;38.304;23.786;2024-03-29T00:37:59;0.40;0.40;0.00
44881;PMS5003;30612;38.304;23.786;2024-03-29T00:40:25;0.80;0.00;0.00
44881;PMS5003;30612;38.304;23.786;2024-03-29T00:42:51;0.80;0.00;0.00
44881;PMS5003;30612;38.304;23.786;2024-03-29T00:45:17;0.60;0.00;0.00
44881;PMS5003;30612;38.304;23.786;2024-03-29T00:47:43;0.00;0.00;0.00
44881;PMS5003;30612;38.304;23.786;2024-03-29T00:50:09;0.00;0.00;0.00
44881;PMS5003;30612;38.304;23.786;2024-03-29T00:52:36;0.00;0.00;0.00
44881;PMS5003;30612;38.304;23.786;2024-03-29T00:55:02;1.80;0.00;0.00
44881;PMS5003;30612;38.304;23.786;2024-03-29T00:57:29;0.00;0.00;0.00
44881;PMS5003;30612;38.304;23.786;2024-03-29T00:59:55;0.40;0.40;0.00
44881;PMS5003;30612;38.304;23.786;2024-03-29T01:02:22;0.00;0.00;0.00
44881;PMS5003;30612;38.304;23.786;2024-03-29T01:04:52;0.00;0.00;0.00
44881;PMS5003;30612;38.304;23.786;2024-03-29T01:07:18;0.00;0.00;0.00
44881;PMS5003;30612;38.304;23.786;2024-03-29T01:09:44;0.00;0.00;0.00
44881;PMS5003;30612;38.304;23.786;2024-03-29T01:12:11;0.00;0.00;0.00
44881;PMS5003;30612;38.304;23.786;2024-03-29T01:14:37;0.00;0.00;0.00
44881;PMS5003;30612;38.304;23.786;2024-03-29T01:17:03;0.00;0.00;0.00
44881;PMS5003;30612;38.304;23.786;2024-03-29T01:19:29;0.00;0.00;0.00
44881;PMS5003;30612;38.304;23.786;2024-03-29T01:21:56;0.00;0.00;0.00
44881;PMS5003;30612;38.304;23.786;2024-03-29T01:24:22;1.40;0.80;0.00
44881;PMS5003;30612;38.304;23.786;2024-03-29T01:26:48;0.00;0.00;0.00
44881;PMS5003;30612;38.304;23.786;2024-03-29T01:29:15;0.00;0.00;0.00
44881;PMS5003;30612;38.304;23.786;2024-03-29T01:31:41;0.00;0.00;0.00
44881;PMS5003;30612;38.304;23.786;2024-03-29T01:34:07;0.00;0.00;0.00
44881;PMS5003;30612;38.304;23.786;2024-03-29T01:36:33;0.00;0.00;0.00
44881;PMS5003;30612;38.304;23.786;2024-03-29T01:38:59;0.00;0.00;0.00
44881;PMS5003;30612;38.304;23.786;2024-03-29T01:41:26;0.00;0.00;0.00
44881;PMS5003;30612;38.304;23.786;2024-03-29T01:43:53;0.00;0.00;0.00
44881;PMS5003;30612;38.304;23.786;2024-03-29T01:46:20;1.00;1.00;0.00
44881;PMS5003;30612;38.304;23.786;2024-03-29T01:48:48;2.00;0.00;0.00
44881;PMS5003;30612;38.304;23.786;2024-03-29T01:51:17;1.00;1.00;0.00
44881;PMS5003;30612;38.304;23.786;2024-03-29T01:53:44;0.00;0.00;0.00
44881;PMS5003;30612;38.304;23.786;2024-03-29T01:56:11;0.00;0.00;0.00
44881;PMS5003;30612;38.304;23.786;2024-03-29T01:58:57;4.00;0.80;0.00
44881;PMS5003;30612;38.304;23.786;2024-03-29T02:01:24;1.20;0.00;0.00
44881;PMS5003;30612;38.304;23.786;2024-03-29T02:03:52;0.00;0.00;0.00
44881;PMS5003;30612;38.304;23.786;2024-03-29T02:06:18;0.00;0.00;0.00
44881;PMS5003;30612;38.304;23.786;2024-03-29T02:08:44;0.00;0.00;0.00
44881;PMS5003;30612;38.304;23.786;2024-03-29T02:11:10;0.00;0.00;0.00
44881;PMS5003;30612;38.304;23.786;2024-03-29T02:13:36;0.20;0.20;0.00
44881;PMS5003;30612;38.304;23.786;2024-03-29T02:16:03;0.00;0.00;0.00
44881;PMS5003;30612;38.304;23.786;2024-03-29T02:18:29;0.00;0.00;0.00
44881;PMS5003;30612;38.304;23.786;2024-03-29T02:20:55;0.80;0.80;0.00
44881;PMS5003;30612;38.304;23.786;2024-03-29T02:23:29;0.80;0.00;0.00
44881;PMS5003;30612;38.304;23.786;2024-03-29T02:25:55;0.00;0.00;0.00
44881;PMS5003;30612;38.304;23.786;2024-03-29T02:28:22;1.60;1.60;1.00
44881;PMS5003;30612;38.304;23.786;2024-03-29T02:30:49;0.80;0.00;0.00
44881;PMS5003;30612;38.304;23.786;2024-03-29T02:33:15;0.00;0.00;0.00
44881;PMS5003;30612;38.304;23.786;2024-03-29T02:35:41;0.20;0.20;0.00
44881;PMS5003;30612;38.304;23.786;2024-03-29T02:38:07;1.40;0.00;0.00
44881;PMS5003;30612;38.304;23.786;2024-03-29T02:40:33;1.20;0.20;0.00
44881;PMS5003;30612;38.304;23.786;2024-03-29T02:42:59;0.00;0.00;0.00
44881;PMS5003;30612;38.304;23.786;2024-03-29T02:45:26;0.40;0.40;0.00
44881;PMS5003;30612;38.304;23.786;2024-03-29T02:47:52;0.00;0.00;0.00
44881;PMS5003;30612;38.304;23.786;2024-03-29T02:50:18;1.00;0.00;0.00
44881;PMS5003;30612;38.304;23.786;2024-03-29T02:52:44;1.00;0.00;0.00
44881;PMS5003;30612;38.304;23.786;2024-03-29T02:55:10;0.80;0.80;0.00
44881;PMS5003;30612;38.304;23.786;2024-03-29T02:57:37;0.00;0.00;0.00
44881;PMS5003;30612;38.304;23.786;2024-03-29T03:00:07;0.60;0.60;0.00
44881;PMS5003;30612;38.304;23.786;2024-03-29T03:02:38;0.40;0.00;0.00
44881;PMS5003;30612;38.304;23.786;2024-03-29T03:05:05;0.00;0.00;0.00
44881;PMS5003;30612;38.304;23.786;2024-03-29T03:07:32;0.00;0.00;0.00
44881;PMS5003;30612;38.304;23.786;2024-03-29T03:10:18;0.20;0.00;0.00
44881;PMS5003;30612;38.304;23.786;2024-03-29T03:13:02;0.00;0.00;0.00
44881;PMS5003;30612;38.304;23.786;2024-03-29T03:15:28;0.00;0.00;0.00
44881;PMS5003;30612;38.304;23.786;2024-03-29T03:17:55;1.80;0.00;0.00
44881;PMS5003;30612;38.304;23.786;2024-03-29T03:20:21;0.60;0.00;0.00
44881;PMS5003;30612;38.304;23.786;2024-03-29T03:22:50;1.00;1.00;0.00
44881;PMS5003;30612;38.304;23.786;2024-03-29T03:25:16;0.00;0.00;0.00
44881;PMS5003;30612;38.304;23.786;2024-03-29T03:27:42;0.00;0.00;0.00
44881;PMS5003;30612;38.304;23.786;2024-03-29T03:30:09;0.00;0.00;0.00
44881;PMS5003;30612;38.304;23.786;2024-03-29T03:32:35;0.60;0.60;0.00
44881;PMS5003;30612;38.304;23.786;2024-03-29T03:35:01;1.80;1.00;0.00
44881;PMS5003;30612;38.304;23.786;2024-03-29T03:37:28;0.60;0.60;0.00
44881;PMS5003;30612;38.304;23.786;2024-03-29T03:39:53;0.40;0.40;0.00
44881;PMS5003;30612;38.304;23.786;2024-03-29T03:42:20;0.60;0.00;0.00
44881;PMS5003;30612;38.304;23.786;2024-03-29T03:44:46;0.00;0.00;0.00
44881;PMS5003;30612;38.304;23.786;2024-03-29T03:47:12;1.80;0.40;0.00
44881;PMS5003;30612;38.304;23.786;2024-03-29T03:49:38;0.60;0.00;0.00
44881;PMS5003;30612;38.304;23.786;2024-03-29T03:52:04;0.00;0.00;0.00
44881;PMS5003;30612;38.304;23.786;2024-03-29T03:54:31;0.20;0.00;0.00
44881;PMS5003;30612;38.304;23.786;2024-03-29T03:56:57;0.40;0.40;0.00
44881;PMS5003;30612;38.304;23.786;2024-03-29T03:59:24;0.60;0.60;0.00
44881;PMS5003;30612;38.304;23.786;2024-03-29T04:01:50;0.40;0.00;0.00
44881;PMS5003;30612;38.304;23.786;2024-03-29T04:04:17;0.00;0.00;0.00
44881;PMS5003;30612;38.304;23.786;2024-03-29T04:06:44;0.00;0.00;0.00
44881;PMS5003;30612;38.304;23.786;2024-03-29T04:09:10;0.00;0.00;0.00
44881;PMS5003;30612;38.304;23.786;2024-03-29T04:11:36;0.20;0.00;0.00
44881;PMS5003;30612;38.304;23.786;2024-03-29T04:14:03;0.40;0.40;0.40
44881;PMS5003;30612;38.304;23.786;2024-03-29T04:16:29;0.00;0.00;0.00
44881;PMS5003;30612;38.304;23.786;2024-03-29T04:18:55;0.60;0.00;0.00
44881;PMS5003;30612;38.304;23.786;2024-03-29T04:21:21;0.00;0.00;0.00
44881;PMS5003;30612;38.304;23.786;2024-03-29T04:23:47;0.60;0.60;0.00
44881;PMS5003;30612;38.304;23.786;2024-03-29T04:26:14;0.00;0.00;0.00
44881;PMS5003;30612;38.304;23.786;2024-03-29T04:28:40;0.00;0.00;0.00
44881;PMS5003;30612;38.304;23.786;2024-03-29T04:31:06;0.00;0.00;0.00
44881;PMS5003;30612;38.304;23.786;2024-03-29T04:33:32;0.00;0.00;0.00
44881;PMS5003;30612;38.304;23.786;2024-03-29T04:36:01;0.00;0.00;0.00
44881;PMS5003;30612;38.304;23.786;2024-03-29T04:38:29;0.00;0.00;0.00
44881;PMS5003;30612;38.304;23.786;2024-03-29T04:40:57;0.00;0.00;0.00
44881;PMS5003;30612;38.304;23.786;2024-03-29T04:43:24;0.20;0.00;0.00
44881;PMS5003;30612;38.304;23.786;2024-03-29T04:46:01;0.40;0.40;0.00
44881;PMS5003;30612;38.304;23.786;2024-03-29T04:48:30;0.00;0.00;0.00
44881;PMS5003;30612;38.304;23.786;2024-03-29T04:50:57;0.00;0.00;0.00
44881;PMS5003;30612;38.304;23.786;2024-03-29T04:53:23;0.00;0.00;0.00
44881;PMS5003;30612;38.304;23.786;2024-03-29T04:55:58;0.20;0.20;0.00
44881;PMS5003;30612;38.304;23.786;2024-03-29T04:58:25;0.60;0.60;0.40
44881;PMS5003;30612;38.304;23.786;2024-03-29T05:00:52;0.00;0.00;0.00
44881;PMS5003;30612;38.304;23.786;2024-03-29T05:03:19;0.00;0.00;0.00
44881;PMS5003;30612;38.304;23.786;2024-03-29T05:05:45;0.00;0.00;0.00
44881;PMS5003;30612;38.304;23.786;2024-03-29T05:08:12;1.60;1.00;0.00
44881;PMS5003;30612;38.304;23.786;2024-03-29T05:10:39;0.80;0.80;0.00
44881;PMS5003;30612;38.304;23.786;2024-03-29T05:13:06;2.00;2.00;0.00
44881;PMS5003;30612;38.304;23.786;2024-03-29T05:15:35;1.00;1.00;0.00
44881;PMS5003;30612;38.304;23.786;2024-03-29T05:18:01;1.00;1.00;0.00
44881;PMS5003;30612;38.304;23.786;2024-03-29T05:20:28;1.60;0.40;0.00
44881;PMS5003;30612;38.304;23.786;2024-03-29T05:22:54;1.60;1.00;0.60
44881;PMS5003;30612;38.304;23.786;2024-03-29T05:25:20;1.20;1.00;0.00
44881;PMS5003;30612;38.304;23.786;2024-03-29T05:27:47;2.00;1.00;0.00
44881;PMS5003;30612;38.304;23.786;2024-03-29T05:30:13;1.00;1.00;0.00
44881;PMS5003;30612;38.304;23.786;2024-03-29T05:32:40;0.80;0.80;0.00
44881;PMS5003;30612;38.304;23.786;2024-03-29T05:35:06;1.80;1.00;0.00
44881;PMS5003;30612;38.304;23.786;2024-03-29T05:37:32;1.20;1.20;0.40
44881;PMS5003;30612;38.304;23.786;2024-03-29T05:39:59;0.00;0.00;0.00
44881;PMS5003;30612;38.304;23.786;2024-03-29T05:42:31;2.20;1.00;0.00
44881;PMS5003;30612;38.304;23.786;2024-03-29T05:44:59;1.00;0.00;0.00
44881;PMS5003;30612;38.304;23.786;2024-03-29T05:47:25;1.80;1.80;1.00
44881;PMS5003;30612;38.304;23.786;2024-03-29T05:49:52;2.00;2.00;0.80
44881;PMS5003;30612;38.304;23.786;2024-03-29T05:52:19;4.60;3.00;2.00
44881;PMS5003;30612;38.304;23.786;2024-03-29T05:54:46;4.40;3.00;1.60
44881;PMS5003;30612;38.304;23.786;2024-03-29T05:57:12;3.00;3.00;1.60
44881;PMS5003;30612;38.304;23.786;2024-03-29T05:59:38;5.50;4.50;2.25
44881;PMS5003;30612;38.304;23.786;2024-03-29T06:02:05;4.00;4.00;2.00
44881;PMS5003;30612;38.304;23.786;2024-03-29T06:04:31;5.00;5.00;3.00
44881;PMS5003;30612;38.304;23.786;2024-03-29T06:07:02;0.00;0.00;0.00
44881;PMS5003;30612;38.304;23.786;2024-03-29T06:09:29;3.50;3.00;2.00
44881;PMS5003;30612;38.304;23.786;2024-03-29T06:11:56;3.00;3.00;1.50
44881;PMS5003;30612;38.304;23.786;2024-03-29T06:14:22;3.75;3.75;2.00
44881;PMS5003;30612;38.304;23.786;2024-03-29T06:17:08;2.50;2.00;1.50
44881;PMS5003;30612;38.304;23.786;2024-03-29T06:20:04;3.75;3.00;2.00
44881;PMS5003;30612;38.304;23.786;2024-03-29T06:22:31;3.00;2.25;1.00
44881;PMS5003;30612;38.304;23.786;2024-03-29T06:24:57;4.25;1.75;1.00
44881;PMS5003;30612;38.304;23.786;2024-03-29T06:27:42;3.75;2.75;1.00
44881;PMS5003;30612;38.304;23.786;2024-03-29T06:30:13;5.00;5.00;3.00
44881;PMS5003;30612;38.304;23.786;2024-03-29T06:32:41;4.00;3.50;2.00
44881;PMS5003;30612;38.304;23.786;2024-03-29T06:35:08;5.00;5.00;2.25
44881;PMS5003;30612;38.304;23.786;2024-03-29T06:37:34;5.75;5.50;3.00
44881;PMS5003;30612;38.304;23.786;2024-03-29T06:40:00;5.50;5.50;3.00
44881;PMS5003;30612;38.304;23.786;2024-03-29T06:42:28;5.75;5.75;2.50
44881;PMS5003;30612;38.304;23.786;2024-03-29T06:44:54;4.25;3.25;1.50
44881;PMS5003;30612;38.304;23.786;2024-03-29T06:47:21;5.00;3.25;2.00
44881;PMS5003;30612;38.304;23.786;2024-03-29T06:49:47;3.75;3.00;0.25
44881;PMS5003;30612;38.304;23.786;2024-03-29T06:52:14;2.50;2.50;0.75
44881;PMS5003;30612;38.304;23.786;2024-03-29T06:54:40;1.00;1.00;0.00
44881;PMS5003;30612;38.304;23.786;2024-03-29T06:57:09;1.50;1.50;0.00
44881;PMS5003;30612;38.304;23.786;2024-03-29T06:59:41;1.00;1.00;0.00
44881;PMS5003;30612;38.304;23.786;2024-03-29T07:02:07;2.00;2.00;0.50
44881;PMS5003;30612;38.304;23.786;2024-03-29T07:04:33;1.50;1.00;0.00
44881;PMS5003;30612;38.304;23.786;2024-03-29T07:06:59;1.50;1.50;0.50
44881;PMS5003;30612;38.304;23.786;2024-03-29T07:09:26;1.25;1.25;1.00
44881;PMS5003;30612;38.304;23.786;2024-03-29T07:11:52;0.50;0.50;0.00
44881;PMS5003;30612;38.304;23.786;2024-03-29T07:14:20;1.50;1.50;0.00
44881;PMS5003;30612;38.304;23.786;2024-03-29T07:16:49;2.50;2.00;1.00
44881;PMS5003;30612;38.304;23.786;2024-03-29T07:19:16;2.25;1.25;0.50
44881;PMS5003;30612;38.304;23.786;2024-03-29T07:21:43;4.25;3.75;1.75
44881;PMS5003;30612;38.304;23.786;2024-03-29T07:24:09;3.25;3.00;1.75
44881;PMS5003;30612;38.304;23.786;2024-03-29T07:26:36;1.75;1.75;1.00
44881;PMS5003;30612;38.304;23.786;2024-03-29T07:29:03;1.00;0.75;0.50
44881;PMS5003;30612;38.304;23.786;2024-03-29T07:31:31;1.00;1.00;0.00
44881;PMS5003;30612;38.304;23.786;2024-03-29T07:33:57;2.00;2.00;0.75
44881;PMS5003;30612;38.304;23.786;2024-03-29T07:36:23;1.00;1.00;0.00
44881;PMS5003;30612;38.304;23.786;2024-03-29T07:38:52;0.75;0.75;0.00
44881;PMS5003;30612;38.304;23.786;2024-03-29T07:41:18;7.00;6.75;4.75
44881;PMS5003;30612;38.304;23.786;2024-03-29T07:43:54;8.00;8.00;3.25
44881;PMS5003;30612;38.304;23.786;2024-03-29T07:46:28;4.50;3.50;2.00
44881;PMS5003;30612;38.304;23.786;2024-03-29T07:48:56;2.00;2.00;1.00
44881;PMS5003;30612;38.304;23.786;2024-03-29T07:51:23;2.00;2.00;1.00
44881;PMS5003;30612;38.304;23.786;2024-03-29T07:53:49;2.25;2.25;1.25
44881;PMS5003;30612;38.304;23.786;2024-03-29T07:56:15;2.50;1.00;0.25
44881;PMS5003;30612;38.304;23.786;2024-03-29T07:58:43;2.00;1.00;0.00
44881;PMS5003;30612;38.304;23.786;2024-03-29T08:01:17;1.00;0.25;0.00
44881;PMS5003;30612;38.304;23.786;2024-03-29T08:03:46;1.75;1.75;0.75
44881;PMS5003;30612;38.304;23.786;2024-03-29T08:06:12;4.50;3.50;2.00
44881;PMS5003;30612;38.304;23.786;2024-03-29T08:08:38;3.25;1.75;1.00
44881;PMS5003;30612;38.304;23.786;2024-03-29T08:11:04;1.00;1.00;0.00
44881;PMS5003;30612;38.304;23.786;2024-03-29T08:13:31;1.00;1.00;0.25
44881;PMS5003;30612;38.304;23.786;2024-03-29T08:15:57;0.75;0.75;0.00
44881;PMS5003;30612;38.304;23.786;2024-03-29T08:18:25;0.00;0.00;0.00
44881;PMS5003;30612;38.304;23.786;2024-03-29T08:20:54;1.00;1.00;1.00
44881;PMS5003;30612;38.304;23.786;2024-03-29T08:23:24;0.00;0.00;0.00
44881;PMS5003;30612;38.304;23.786;2024-03-29T08:25:50;0.75;0.75;0.00
44881;PMS5003;30612;38.304;23.786;2024-03-29T08:28:18;0.00;0.00;0.00
44881;PMS5003;30612;38.304;23.786;2024-03-29T08:30:44;3.25;2.00;0.50
44881;PMS5003;30612;38.304;23.786;2024-03-29T08:33:11;1.00;1.00;0.00
44881;PMS5003;30612;38.304;23.786;2024-03-29T08:35:38;3.50;2.50;1.50
44881;PMS5003;30612;38.304;23.786;2024-03-29T08:38:09;1.00;1.00;0.00
44881;PMS5003;30612;38.304;23.786;2024-03-29T08:40:35;6.50;5.00;1.50
44881;PMS5003;30612;38.304;23.786;2024-03-29T08:43:04;3.25;2.50;1.25
44881;PMS5003;30612;38.304;23.786;2024-03-29T08:45:31;4.00;3.00;1.00
44881;PMS5003;30612;38.304;23.786;2024-03-29T08:47:57;7.00;7.00;3.50
44881;PMS5003;30612;38.304;23.786;2024-03-29T08:50:23;4.00;4.00;3.00
44881;PMS5003;30612;38.304;23.786;2024-03-29T08:52:49;1.75;1.75;1.00
44881;PMS5003;30612;38.304;23.786;2024-03-29T08:55:16;3.50;2.00;1.00
44881;PMS5003;30612;38.304;23.786;2024-03-29T08:57:42;2.00;1.00;0.00
44881;PMS5003;30612;38.304;23.786;2024-03-29T09:00:08;1.50;1.50;0.75
44881;PMS5003;30612;38.304;23.786;2024-03-29T09:02:35;3.00;1.50;0.25
44881;PMS5003;30612;38.304;23.786;2024-03-29T09:05:02;2.75;1.50;1.50
44881;PMS5003;30612;38.304;23.786;2024-03-29T09:07:28;5.00;3.00;2.00
44881;PMS5003;30612;38.304;23.786;2024-03-29T09:09:55;5.00;5.00;3.25
44881;PMS5003;30612;38.304;23.786;2024-03-29T09:12:22;6.00;6.00;4.00
44881;PMS5003;30612;38.304;23.786;2024-03-29T09:14:48;4.75;4.75;3.50
44881;PMS5003;30612;38.304;23.786;2024-03-29T09:17:16;4.25;3.25;1.75
44881;PMS5003;30612;38.304;23.786;2024-03-29T09:19:42;4.50;4.00;2.75
44881;PMS5003;30612;38.304;23.786;2024-03-29T09:22:09;4.25;4.25;2.75
44881;PMS5003;30612;38.304;23.786;2024-03-29T09:24:36;5.75;3.75;2.75
44881;PMS5003;30612;38.304;23.786;2024-03-29T09:27:03;1.00;1.00;1.00
44881;PMS5003;30612;38.304;23.786;2024-03-29T09:29:30;4.25;2.75;1.00
44881;PMS5003;30612;38.304;23.786;2024-03-29T09:31:56;3.50;3.25;2.00
44881;PMS5003;30612;38.304;23.786;2024-03-29T09:34:22;1.50;1.00;0.00
44881;PMS5003;30612;38.304;23.786;2024-03-29T09:36:49;4.00;4.00;2.00
44881;PMS5003;30612;38.304;23.786;2024-03-29T09:39:16;4.25;4.25;2.00
44881;PMS5003;30612;38.304;23.786;2024-03-29T09:41:43;3.25;3.00;2.00
44881;PMS5003;30612;38.304;23.786;2024-03-29T09:44:11;3.00;3.00;1.00
44881;PMS5003;30612;38.304;23.786;2024-03-29T09:46:38;2.25;1.00;0.25
44881;PMS5003;30612;38.304;23.786;2024-03-29T09:49:07;3.00;3.00;2.00
44881;PMS5003;30612;38.304;23.786;2024-03-29T09:51:34;3.75;3.75;1.50
44881;PMS5003;30612;38.304;23.786;2024-03-29T09:54:02;3.00;2.00;1.00
44881;PMS5003;30612;38.304;23.786;2024-03-29T09:56:30;2.00;2.00;1.00
44881;PMS5003;30612;38.304;23.786;2024-03-29T09:58:56;4.50;2.25;1.00
44881;PMS5003;30612;38.304;23.786;2024-03-29T10:01:23;2.00;2.00;1.00
44881;PMS5003;30612;38.304;23.786;2024-03-29T10:03:50;2.20;1.80;1.00
44881;PMS5003;30612;38.304;23.786;2024-03-29T10:06:17;3.00;2.50;1.00
44881;PMS5003;30612;38.304;23.786;2024-03-29T10:08:45;5.00;5.00;2.00
44881;PMS5003;30612;38.304;23.786;2024-03-29T10:11:13;5.50;5.50;2.25
44881;PMS5003;30612;38.304;23.786;2024-03-29T10:13:42;8.00;6.75;3.75
44881;PMS5003;30612;38.304;23.786;2024-03-29T10:16:10;6.50;5.00;3.00
44881;PMS5003;30612;38.304;23.786;2024-03-29T10:18:40;5.75;4.75;2.00
44881;PMS5003;30612;38.304;23.786;2024-03-29T10:21:07;4.00;3.25;2.00
44881;PMS5003;30612;38.304;23.786;2024-03-29T10:23:34;4.00;3.00;2.00
44881;PMS5003;30612;38.304;23.786;2024-03-29T10:26:01;3.75;3.75;2.00
44881;PMS5003;30612;38.304;23.786;2024-03-29T10:28:32;5.25;4.00;2.75
44881;PMS5003;30612;38.304;23.786;2024-03-29T10:31:01;2.75;2.75;1.75
44881;PMS5003;30612;38.304;23.786;2024-03-29T10:33:29;4.00;2.75;1.25
44881;PMS5003;30612;38.304;23.786;2024-03-29T10:35:56;4.75;2.00;0.50
44881;PMS5003;30612;38.304;23.786;2024-03-29T10:38:24;4.50;2.25;1.00
44881;PMS5003;30612;38.304;23.786;2024-03-29T10:40:52;3.00;3.00;1.25
44881;PMS5003;30612;38.304;23.786;2024-03-29T10:43:18;2.00;2.00;0.20
44881;PMS5003;30612;38.304;23.786;2024-03-29T10:45:46;2.00;2.00;1.00
44881;PMS5003;30612;38.304;23.786;2024-03-29T10:48:14;2.00;2.00;0.75
44881;PMS5003;30612;38.304;23.786;2024-03-29T10:50:41;1.00;1.00;0.40
44881;PMS5003;30612;38.304;23.786;2024-03-29T10:53:09;2.60;2.00;1.00
44881;PMS5003;30612;38.304;23.786;2024-03-29T10:55:37;2.00;2.00;1.00
44881;PMS5003;30612;38.304;23.786;2024-03-29T10:58:07;3.00;3.00;1.75
44881;PMS5003;30612;38.304;23.786;2024-03-29T11:00:47;3.25;2.00;1.00
44881;PMS5003;30612;38.304;23.786;2024-03-29T11:03:23;4.00;3.75;1.00
44881;PMS5003;30612;38.304;23.786;2024-03-29T11:06:04;2.75;2.75;1.00
44881;PMS5003;30612;38.304;23.786;2024-03-29T11:08:32;2.25;2.25;1.00
44881;PMS5003;30612;38.304;23.786;2024-03-29T11:11:04;2.00;2.00;1.00
44881;PMS5003;30612;38.304;23.786;2024-03-29T11:13:39;3.25;2.75;1.25
44881;PMS5003;30612;38.304;23.786;2024-03-29T11:16:26;1.00;1.00;0.00
44881;PMS5003;30612;38.304;23.786;2024-03-29T11:18:53;3.00;3.00;1.00
44881;PMS5003;30612;38.304;23.786;2024-03-29T11:21:20;2.80;1.20;0.60
44881;PMS5003;30612;38.304;23.786;2024-03-29T11:23:53;3.50;2.00;1.00
44881;PMS5003;30612;38.304;23.786;2024-03-29T11:26:19;3.40;2.80;1.40
44881;PMS5003;30612;38.304;23.786;2024-03-29T11:28:50;1.00;1.00;1.00
44881;PMS5003;30612;38.304;23.786;2024-03-29T11:31:17;1.00;1.00;1.00
44881;PMS5003;30612;38.304;23.786;2024-03-29T11:33:45;2.40;1.80;1.40
44881;PMS5003;30612;38.304;23.786;2024-03-29T11:36:13;3.00;2.00;1.00
44881;PMS5003;30612;38.304;23.786;2024-03-29T11:38:53;1.00;1.00;1.00
44881;PMS5003;30612;38.304;23.786;2024-03-29T11:41:25;1.80;1.80;1.00
44881;PMS5003;30612;38.304;23.786;2024-03-29T11:43:53;2.00;1.00;0.00
44881;PMS5003;30612;38.304;23.786;2024-03-29T11:46:20;1.20;1.20;0.20
44881;PMS5003;30612;38.304;23.786;2024-03-29T11:48:47;3.00;1.00;0.25
44881;PMS5003;30612;38.304;23.786;2024-03-29T11:51:18;4.80;2.00;1.00
44881;PMS5003;30612;38.304;23.786;2024-03-29T11:53:47;0.20;0.20;0.00
44881;PMS5003;30612;38.304;23.786;2024-03-29T11:56:18;1.50;1.00;1.00
44881;PMS5003;30612;38.304;23.786;2024-03-29T11:58:45;1.25;1.25;0.25
44881;PMS5003;30612;38.304;23.786;2024-03-29T12:01:12;4.50;3.50;1.00
44881;PMS5003;30612;38.304;23.786;2024-03-29T12:03:41;1.80;1.80;1.00
44881;PMS5003;30612;38.304;23.786;2024-03-29T12:06:08;2.00;2.00;1.00
44881;PMS5003;30612;38.304;23.786;2024-03-29T12:08:35;2.75;1.75;1.00
44881;PMS5003;30612;38.304;23.786;2024-03-29T12:11:05;1.80;1.20;0.40
44881;PMS5003;30612;38.304;23.786;2024-03-29T12:13:32;2.00;1.60;1.00
44881;PMS5003;30612;38.304;23.786;2024-03-29T12:15:59;1.00;1.00;0.00
44881;PMS5003;30612;38.304;23.786;2024-03-29T12:18:26;1.00;1.00;0.00
44881;PMS5003;30612;38.304;23.786;2024-03-29T12:20:58;1.40;0.80;0.00
44881;PMS5003;30612;38.304;23.786;2024-03-29T12:23:25;0.80;0.80;0.00
44881;PMS5003;30612;38.304;23.786;2024-03-29T12:25:53;0.80;0.80;0.00
44881;PMS5003;30612;38.304;23.786;2024-03-29T12:28:23;1.00;1.00;0.00
44881;PMS5003;30612;38.304;23.786;2024-03-29T12:30:50;0.60;0.60;0.00
44881;PMS5003;30612;38.304;23.786;2024-03-29T12:33:17;0.60;0.60;0.00
44881;PMS5003;30612;38.304;23.786;2024-03-29T12:35:48;2.00;1.00;0.60
44881;PMS5003;30612;38.304;23.786;2024-03-29T12:38:18;2.00;1.00;0.00
44881;PMS5003;30612;38.304;23.786;2024-03-29T12:40:46;1.00;1.00;0.00
44881;PMS5003;30612;38.304;23.786;2024-03-29T12:43:15;2.20;1.00;0.00
44881;PMS5003;30612;38.304;23.786;2024-03-29T12:45:43;1.20;1.00;0.00
44881;PMS5003;30612;38.304;23.786;2024-03-29T12:48:10;0.50;0.50;0.00
44881;PMS5003;30612;38.304;23.786;2024-03-29T12:50:41;2.00;1.00;0.00
44881;PMS5003;30612;38.304;23.786;2024-03-29T12:53:08;2.60;2.20;1.00
44881;PMS5003;30612;38.304;23.786;2024-03-29T12:55:36;3.00;2.00;1.00
44881;PMS5003;30612;38.304;23.786;2024-03-29T12:58:05;4.20;2.20;0.00
44881;PMS5003;30612;38.304;23.786;2024-03-29T13:00:35;2.60;2.60;1.00
44881;PMS5003;30612;38.304;23.786;2024-03-29T13:03:05;2.00;2.00;1.00
44881;PMS5003;30612;38.304;23.786;2024-03-29T13:05:32;1.75;1.75;0.50
44881;PMS5003;30612;38.304;23.786;2024-03-29T13:08:10;4.00;2.00;1.00
44881;PMS5003;30612;38.304;23.786;2024-03-29T13:10:38;1.50;1.50;0.75
44881;PMS5003;30612;38.304;23.786;2024-03-29T13:13:05;5.25;2.75;1.00
44881;PMS5003;30612;38.304;23.786;2024-03-29T13:15:32;2.50;1.25;0.50
44881;PMS5003;30612;38.304;23.786;2024-03-29T13:18:00;2.00;2.00;1.00
44881;PMS5003;30612;38.304;23.786;2024-03-29T13:20:26;2.50;2.00;0.50
44881;PMS5003;30612;38.304;23.786;2024-03-29T13:22:53;2.20;1.20;0.00
44881;PMS5003;30612;38.304;23.786;2024-03-29T13:25:21;2.00;2.00;0.50
44881;PMS5003;30612;38.304;23.786;2024-03-29T13:27:51;3.25;2.00;1.00
44881;PMS5003;30612;38.304;23.786;2024-03-29T13:30:19;3.20;2.20;1.00
44881;PMS5003;30612;38.304;23.786;2024-03-29T13:32:49;3.80;2.40;1.00
44881;PMS5003;30612;38.304;23.786;2024-03-29T13:35:15;4.00;3.40;1.00
44881;PMS5003;30612;38.304;23.786;2024-03-29T13:37:43;4.20;3.00;1.00
44881;PMS5003;30612;38.304;23.786;2024-03-29T13:40:12;3.00;1.80;0.20
44881;PMS5003;30612;38.304;23.786;2024-03-29T13:42:38;3.60;2.20;1.00
44881;PMS5003;30612;38.304;23.786;2024-03-29T13:45:05;2.20;2.20;0.40
44881;PMS5003;30612;38.304;23.786;2024-03-29T13:47:32;3.75;3.75;1.00
44881;PMS5003;30612;38.304;23.786;2024-03-29T13:49:59;2.00;2.00;1.00
44881;PMS5003;30612;38.304;23.786;2024-03-29T13:52:25;1.20;1.20;0.00
44881;PMS5003;30612;38.304;23.786;2024-03-29T13:54:56;4.00;3.25;1.00
44881;PMS5003;30612;38.304;23.786;2024-03-29T13:57:22;3.25;2.00;1.50
44881;PMS5003;30612;38.304;23.786;2024-03-29T13:59:48;4.25;3.00;2.00
44881;PMS5003;30612;38.304;23.786;2024-03-29T14:02:15;2.00;2.00;1.20
44881;PMS5003;30612;38.304;23.786;2024-03-29T14:04:44;3.20;2.00;1.00
44881;PMS5003;30612;38.304;23.786;2024-03-29T14:07:12;5.20;2.40;1.00
44881;PMS5003;30612;38.304;23.786;2024-03-29T14:09:43;4.00;2.75;1.00
44881;PMS5003;30612;38.304;23.786;2024-03-29T14:12:10;2.50;2.50;2.00